sensor_id;sensor_type;location;lat;lon;timestamp;pressure;altitude;pressure_sealevel;temperature;humidity
61484;BME280;47349;55.640;37.692;2022-09-02T00:02:00;98718.69;;;7.71;77.66
61484;BME280;47349;55.640;37.692;2022-09-02T00:04:43;98719.50;;;7.57;77.89
61484;BME280;47349;55.640;37.692;2022-09-02T00:07:26;98698.66;;;7.61;77.90
61484;BME280;47349;55.640;37.692;2022-09-02T00:10:08;98712.06;;;7.67;78.07
61484;BME280;47349;55.640;37.692;2022-09-02T00:12:50;98721.56;;;7.70;78.10
61484;BME280;47349;55.640;37.692;2022-09-02T00:15:34;98717.41;;;7.67;78.23
61484;BME280;47349;55.640;37.692;2022-09-02T00:18:17;98703.03;;;7.54;77.86
61484;BME280;47349;55.640;37.692;2022-09-02T00:20:59;98717.13;;;7.62;76.98
61484;BME280;47349;55.640;37.692;2022-09-02T00:23:43;98714.25;;;7.64;77.23
61484;BME280;47349;55.640;37.692;2022-09-02T00:26:26;98740.22;;;7.70;76.92
61484;BME280;47349;55.640;37.692;2022-09-02T00:29:07;98713.09;;;7.66;76.74
61484;BME280;47349;55.640;37.692;2022-09-02T00:31:48;98728.06;;;7.67;76.88
61484;BME280;47349;55.640;37.692;2022-09-02T00:34:30;98728.56;;;7.71;77.04
61484;BME280;47349;55.640;37.692;2022-09-02T00:37:13;98728.75;;;7.69;76.93
61484;BME280;47349;55.640;37.692;2022-09-02T00:39:56;98733.69;;;7.72;77.01
61484;BME280;47349;55.640;37.692;2022-09-02T00:42:38;98738.59;;;7.69;77.00
61484;BME280;47349;55.640;37.692;2022-09-02T00:45:21;98721.56;;;7.70;77.06
61484;BME280;47349;55.640;37.692;2022-09-02T00:48:04;98682.53;;;7.54;76.98
61484;BME280;47349;55.640;37.692;2022-09-02T00:50:46;98705.81;;;7.60;77.48
61484;BME280;47349;55.640;37.692;2022-09-02T00:53:28;98726.97;;;7.62;76.81
61484;BME280;47349;55.640;37.692;2022-09-02T00:55:56;98721.63;;;7.62;77.59
61484;BME280;47349;55.640;37.692;2022-09-02T00:58:39;98716.19;;;7.55;77.51
61484;BME280;47349;55.640;37.692;2022-09-02T01:01:23;98728.03;;;7.53;77.38
61484;BME280;47349;55.640;37.692;2022-09-02T01:04:05;98712.41;;;7.50;76.08
61484;BME280;47349;55.640;37.692;2022-09-02T01:06:46;98703.97;;;7.61;76.54
61484;BME280;47349;55.640;37.692;2022-09-02T01:09:27;98709.13;;;7.62;76.21
61484;BME280;47349;55.640;37.692;2022-09-02T01:12:20;98708.22;;;7.70;75.83
61484;BME280;47349;55.640;37.692;2022-09-02T01:14:49;98710.34;;;7.75;75.69
61484;BME280;47349;55.640;37.692;2022-09-02T01:17:32;98675.91;;;7.50;76.15
61484;BME280;47349;55.640;37.692;2022-09-02T01:20:21;98705.09;;;7.66;76.14
61484;BME280;47349;55.640;37.692;2022-09-02T01:23:07;98692.84;;;7.57;76.63
61484;BME280;47349;55.640;37.692;2022-09-02T01:25:44;98711.25;;;7.67;77.27
61484;BME280;47349;55.640;37.692;2022-09-02T01:28:26;98715.28;;;7.63;78.55
61484;BME280;47349;55.640;37.692;2022-09-02T01:31:08;98703.13;;;7.45;79.14
61484;BME280;47349;55.640;37.692;2022-09-02T01:33:49;98711.81;;;7.39;80.54
61484;BME280;47349;55.640;37.692;2022-09-02T01:36:32;98707.19;;;7.33;81.18
61484;BME280;47349;55.640;37.692;2022-09-02T01:39:14;98697.81;;;7.22;82.61
61484;BME280;47349;55.640;37.692;2022-09-02T01:42:04;98703.59;;;7.26;83.16
61484;BME280;47349;55.640;37.692;2022-09-02T01:44:46;98694.16;;;7.15;83.73
61484;BME280;47349;55.640;37.692;2022-09-02T01:47:28;98719.66;;;7.18;84.13
61484;BME280;47349;55.640;37.692;2022-09-02T01:50:10;98714.22;;;7.11;84.67
61484;BME280;47349;55.640;37.692;2022-09-02T01:52:51;98749.25;;;7.23;85.15
61484;BME280;47349;55.640;37.692;2022-09-02T01:55:36;98764.53;;;7.06;86.89
61484;BME280;47349;55.640;37.692;2022-09-02T01:58:34;98752.66;;;6.86;85.44
61484;BME280;47349;55.640;37.692;2022-09-02T02:01:44;98757.75;;;6.95;86.63
61484;BME280;47349;55.640;37.692;2022-09-02T02:04:38;98761.84;;;6.75;85.76
61484;BME280;47349;55.640;37.692;2022-09-02T02:07:45;98757.28;;;6.92;84.66
61484;BME280;47349;55.640;37.692;2022-09-02T02:10:46;98732.44;;;6.68;84.48
61484;BME280;47349;55.640;37.692;2022-09-02T02:13:31;98765.94;;;6.94;83.23
61484;BME280;47349;55.640;37.692;2022-09-02T02:16:14;98801.06;;;6.89;83.11
61484;BME280;47349;55.640;37.692;2022-09-02T02:18:56;98764.91;;;6.95;82.77
61484;BME280;47349;55.640;37.692;2022-09-02T02:21:58;98782.03;;;7.01;82.39
61484;BME280;47349;55.640;37.692;2022-09-02T02:24:42;98776.81;;;6.84;82.66
61484;BME280;47349;55.640;37.692;2022-09-02T02:27:26;98785.28;;;6.88;82.26
61484;BME280;47349;55.640;37.692;2022-09-02T02:30:48;98767.75;;;6.62;83.30
61484;BME280;47349;55.640;37.692;2022-09-02T02:34:00;98743.47;;;6.57;85.00
61484;BME280;47349;55.640;37.692;2022-09-02T02:36:54;98770.03;;;6.74;84.69
61484;BME280;47349;55.640;37.692;2022-09-02T02:39:43;98760.22;;;6.74;84.73
61484;BME280;47349;55.640;37.692;2022-09-02T02:42:45;98770.00;;;6.82;84.96
61484;BME280;47349;55.640;37.692;2022-09-02T02:45:27;98755.41;;;6.69;84.74
61484;BME280;47349;55.640;37.692;2022-09-02T02:48:15;98776.91;;;6.91;83.67
61484;BME280;47349;55.640;37.692;2022-09-02T02:51:19;98751.03;;;6.77;84.04
61484;BME280;47349;55.640;37.692;2022-09-02T02:54:01;98775.22;;;6.98;83.28
61484;BME280;47349;55.640;37.692;2022-09-02T02:56:52;98775.97;;;6.84;82.48
61484;BME280;47349;55.640;37.692;2022-09-02T02:59:37;98742.09;;;6.69;82.21
61484;BME280;47349;55.640;37.692;2022-09-02T03:02:22;98772.97;;;6.87;82.86
61484;BME280;47349;55.640;37.692;2022-09-02T03:05:05;98764.34;;;6.77;82.42
61484;BME280;47349;55.640;37.692;2022-09-02T03:07:49;98780.25;;;6.93;82.49
61484;BME280;47349;55.640;37.692;2022-09-02T03:11:25;98804.81;;;7.11;82.68
61484;BME280;47349;55.640;37.692;2022-09-02T03:14:10;98782.41;;;6.98;82.32
61484;BME280;47349;55.640;37.692;2022-09-02T03:16:52;98805.44;;;7.13;81.37
61484;BME280;47349;55.640;37.692;2022-09-02T03:19:35;98770.09;;;6.97;81.55
61484;BME280;47349;55.640;37.692;2022-09-02T03:22:38;98800.94;;;7.14;81.73
61484;BME280;47349;55.640;37.692;2022-09-02T03:26:10;98793.44;;;7.17;82.00
61484;BME280;47349;55.640;37.692;2022-09-02T03:29:31;98791.78;;;7.16;81.25
61484;BME280;47349;55.640;37.692;2022-09-02T03:32:17;98766.13;;;6.92;81.75
61484;BME280;47349;55.640;37.692;2022-09-02T03:38:46;98800.72;;;7.24;81.12
61484;BME280;47349;55.640;37.692;2022-09-02T03:41:53;98765.38;;;7.07;80.56
61484;BME280;47349;55.640;37.692;2022-09-02T03:54:16;98808.97;;;7.37;80.31
61484;BME280;47349;55.640;37.692;2022-09-02T03:57:22;98815.44;;;7.42;78.98
61484;BME280;47349;55.640;37.692;2022-09-02T04:00:08;98822.91;;;7.47;77.19
61484;BME280;47349;55.640;37.692;2022-09-02T04:02:51;98826.16;;;7.57;78.51
61484;BME280;47349;55.640;37.692;2022-09-02T04:05:46;98794.63;;;7.38;75.49
61484;BME280;47349;55.640;37.692;2022-09-02T04:08:37;98807.25;;;7.44;76.71
61484;BME280;47349;55.640;37.692;2022-09-02T04:12:12;98832.03;;;7.76;75.48
61484;BME280;47349;55.640;37.692;2022-09-02T04:15:40;98807.00;;;7.54;75.87
61484;BME280;47349;55.640;37.692;2022-09-02T04:19:24;98842.22;;;7.72;75.25
61484;BME280;47349;55.640;37.692;2022-09-02T04:22:34;98826.94;;;7.66;75.64
61484;BME280;47349;55.640;37.692;2022-09-02T04:31:31;98846.72;;;7.71;74.37
61484;BME280;47349;55.640;37.692;2022-09-02T05:03:10;98854.09;;;7.69;77.55
61484;BME280;47349;55.640;37.692;2022-09-02T05:06:26;98834.47;;;7.62;77.92
61484;BME280;47349;55.640;37.692;2022-09-02T05:09:24;98842.06;;;7.51;78.21
61484;BME280;47349;55.640;37.692;2022-09-02T05:12:33;98829.53;;;7.51;78.73
61484;BME280;47349;55.640;37.692;2022-09-02T05:15:28;98868.03;;;7.80;79.11
61484;BME280;47349;55.640;37.692;2022-09-02T05:18:15;98850.13;;;7.65;79.68
61484;BME280;47349;55.640;37.692;2022-09-02T05:21:05;98844.63;;;7.59;78.50
61484;BME280;47349;55.640;37.692;2022-09-02T05:23:52;98859.34;;;7.55;78.47
61484;BME280;47349;55.640;37.692;2022-09-02T05:26:38;98895.03;;;7.77;78.67
61484;BME280;47349;55.640;37.692;2022-09-02T05:29:33;98855.03;;;7.77;77.62
61484;BME280;47349;55.640;37.692;2022-09-02T05:38:24;98879.63;;;7.87;78.26
61484;BME280;47349;55.640;37.692;2022-09-02T05:42:03;98877.72;;;7.72;78.97
61484;BME280;47349;55.640;37.692;2022-09-02T05:46:20;98929.72;;;7.77;75.42
61484;BME280;47349;55.640;37.692;2022-09-02T05:51:50;98882.59;;;7.92;75.81
61484;BME280;47349;55.640;37.692;2022-09-02T05:55:49;98932.84;;;8.26;75.24
61484;BME280;47349;55.640;37.692;2022-09-02T06:00:34;98914.94;;;8.35;74.97
61484;BME280;47349;55.640;37.692;2022-09-02T06:05:22;98928.13;;;8.36;73.63
61484;BME280;47349;55.640;37.692;2022-09-02T06:09:36;98915.72;;;8.20;73.00
61484;BME280;47349;55.640;37.692;2022-09-02T06:13:00;98901.44;;;8.13;71.13
61484;BME280;47349;55.640;37.692;2022-09-02T06:15:34;98904.63;;;8.32;70.24
61484;BME280;47349;55.640;37.692;2022-09-02T06:18:26;98915.75;;;8.58;70.70
61484;BME280;47349;55.640;37.692;2022-09-02T06:21:11;98914.47;;;8.54;69.18
61484;BME280;47349;55.640;37.692;2022-09-02T06:23:58;98931.06;;;8.64;69.59
61484;BME280;47349;55.640;37.692;2022-09-02T06:26:55;98893.53;;;8.43;68.93
61484;BME280;47349;55.640;37.692;2022-09-02T06:29:44;98931.59;;;8.60;69.20
61484;BME280;47349;55.640;37.692;2022-09-02T06:32:48;98938.78;;;8.59;69.19
61484;BME280;47349;55.640;37.692;2022-09-02T06:35:43;98936.66;;;8.55;69.07
61484;BME280;47349;55.640;37.692;2022-09-02T06:39:09;98955.25;;;8.48;69.81
61484;BME280;47349;55.640;37.692;2022-09-02T06:42:24;98965.25;;;8.69;69.54
61484;BME280;47349;55.640;37.692;2022-09-02T06:45:26;98930.25;;;8.41;69.97
61484;BME280;47349;55.640;37.692;2022-09-02T06:48:30;98968.13;;;8.44;71.17
61484;BME280;47349;55.640;37.692;2022-09-02T06:51:23;98999.69;;;8.64;70.58
61484;BME280;47349;55.640;37.692;2022-09-02T06:53:57;98974.94;;;8.85;70.54
61484;BME280;47349;55.640;37.692;2022-09-02T06:56:40;98981.28;;;8.84;70.85
61484;BME280;47349;55.640;37.692;2022-09-02T06:59:27;98981.50;;;8.97;70.35
61484;BME280;47349;55.640;37.692;2022-09-02T07:02:19;98986.59;;;9.07;69.30
61484;BME280;47349;55.640;37.692;2022-09-02T07:05:04;98991.44;;;9.03;69.57
61484;BME280;47349;55.640;37.692;2022-09-02T07:07:55;98984.09;;;9.05;70.16
61484;BME280;47349;55.640;37.692;2022-09-02T07:10:40;98994.31;;;9.01;69.69
61484;BME280;47349;55.640;37.692;2022-09-02T07:13:25;98980.13;;;9.01;69.14
61484;BME280;47349;55.640;37.692;2022-09-02T07:16:12;99004.00;;;9.02;68.82
61484;BME280;47349;55.640;37.692;2022-09-02T07:18:56;98995.53;;;9.14;69.24
61484;BME280;47349;55.640;37.692;2022-09-02T07:21:39;98992.13;;;9.35;68.40
61484;BME280;47349;55.640;37.692;2022-09-02T07:24:12;98978.28;;;9.31;68.08
61484;BME280;47349;55.640;37.692;2022-09-02T07:26:57;99007.91;;;9.44;68.23
61484;BME280;47349;55.640;37.692;2022-09-02T07:29:38;98975.69;;;9.38;68.08
61484;BME280;47349;55.640;37.692;2022-09-02T07:32:11;99017.94;;;9.27;66.26
61484;BME280;47349;55.640;37.692;2022-09-02T07:35:21;99014.44;;;9.27;65.04
61484;BME280;47349;55.640;37.692;2022-09-02T07:38:07;99000.91;;;9.29;65.52
61484;BME280;47349;55.640;37.692;2022-09-02T07:40:54;98994.88;;;9.56;64.96
61484;BME280;47349;55.640;37.692;2022-09-02T07:43:37;98996.53;;;9.57;64.67
61484;BME280;47349;55.640;37.692;2022-09-02T07:46:23;99028.34;;;9.67;64.14
61484;BME280;47349;55.640;37.692;2022-09-02T07:49:08;99011.06;;;9.84;63.77
61484;BME280;47349;55.640;37.692;2022-09-02T07:51:51;99000.66;;;9.74;63.54
61484;BME280;47349;55.640;37.692;2022-09-02T07:54:25;99019.03;;;9.77;64.09
61484;BME280;47349;55.640;37.692;2022-09-02T07:57:07;99020.50;;;9.80;63.45
61484;BME280;47349;55.640;37.692;2022-09-02T07:59:49;99006.78;;;9.68;63.80
61484;BME280;47349;55.640;37.692;2022-09-02T08:02:40;99022.72;;;9.62;64.34
61484;BME280;47349;55.640;37.692;2022-09-02T08:05:28;99042.75;;;9.51;66.00
61484;BME280;47349;55.640;37.692;2022-09-02T08:07:58;99070.03;;;9.32;68.07
61484;BME280;47349;55.640;37.692;2022-09-02T08:10:42;99026.66;;;8.92;69.81
61484;BME280;47349;55.640;37.692;2022-09-02T08:13:26;99040.84;;;8.92;70.32
61484;BME280;47349;55.640;37.692;2022-09-02T08:16:24;99025.00;;;8.91;70.40
61484;BME280;47349;55.640;37.692;2022-09-02T08:19:07;99048.16;;;9.13;69.03
61484;BME280;47349;55.640;37.692;2022-09-02T08:21:50;99049.75;;;9.22;68.79
61484;BME280;47349;55.640;37.692;2022-09-02T08:24:40;99054.28;;;9.37;67.81
61484;BME280;47349;55.640;37.692;2022-09-02T08:27:16;99043.69;;;9.58;66.67
61484;BME280;47349;55.640;37.692;2022-09-02T08:30:18;99027.34;;;9.83;66.45
61484;BME280;47349;55.640;37.692;2022-09-02T08:32:46;99050.31;;;9.92;64.60
61484;BME280;47349;55.640;37.692;2022-09-02T08:35:29;99062.75;;;9.85;65.64
61484;BME280;47349;55.640;37.692;2022-09-02T08:38:00;99031.88;;;9.67;67.89
61484;BME280;47349;55.640;37.692;2022-09-02T08:40:43;99084.72;;;9.65;68.18
61484;BME280;47349;55.640;37.692;2022-09-02T08:43:38;99091.84;;;9.58;68.89
61484;BME280;47349;55.640;37.692;2022-09-02T08:46:26;99088.16;;;9.59;67.86
61484;BME280;47349;55.640;37.692;2022-09-02T08:49:34;99096.81;;;9.61;68.53
61484;BME280;47349;55.640;37.692;2022-09-02T08:52:07;99100.31;;;9.62;69.59
61484;BME280;47349;55.640;37.692;2022-09-02T08:54:54;99089.34;;;9.71;70.64
61484;BME280;47349;55.640;37.692;2022-09-02T08:57:40;99080.59;;;9.77;70.56
61484;BME280;47349;55.640;37.692;2022-09-02T09:00:24;99101.88;;;9.86;69.51
61484;BME280;47349;55.640;37.692;2022-09-02T09:03:32;99044.03;;;9.85;69.42
61484;BME280;47349;55.640;37.692;2022-09-02T09:09:43;99081.09;;;10.17;67.80
61484;BME280;47349;55.640;37.692;2022-09-02T09:18:35;99075.22;;;10.43;66.46
61484;BME280;47349;55.640;37.692;2022-09-02T09:21:18;99065.88;;;10.54;65.76
61484;BME280;47349;55.640;37.692;2022-09-02T09:23:54;99093.88;;;10.73;65.30
61484;BME280;47349;55.640;37.692;2022-09-02T09:26:38;99092.84;;;10.95;63.49
61484;BME280;47349;55.640;37.692;2022-09-02T09:29:22;99095.72;;;10.94;62.98
61484;BME280;47349;55.640;37.692;2022-09-02T09:31:57;99101.53;;;10.97;63.20
61484;BME280;47349;55.640;37.692;2022-09-02T09:45:46;99110.13;;;11.14;59.71
61484;BME280;47349;55.640;37.692;2022-09-02T09:48:29;99076.56;;;10.97;58.32
61484;BME280;47349;55.640;37.692;2022-09-02T09:51:16;99097.09;;;11.11;58.68
61484;BME280;47349;55.640;37.692;2022-09-02T09:54:14;99130.56;;;11.15;60.60
61484;BME280;47349;55.640;37.692;2022-09-02T09:57:18;99132.53;;;11.28;61.42
61484;BME280;47349;55.640;37.692;2022-09-02T09:59:59;99141.16;;;11.23;60.57
61484;BME280;47349;55.640;37.692;2022-09-02T10:02:51;99123.59;;;11.21;59.87
61484;BME280;47349;55.640;37.692;2022-09-02T10:05:39;99126.34;;;11.06;59.80
61484;BME280;47349;55.640;37.692;2022-09-02T10:08:30;99126.50;;;10.98;58.88
61484;BME280;47349;55.640;37.692;2022-09-02T10:11:26;99148.38;;;11.01;59.52
61484;BME280;47349;55.640;37.692;2022-09-02T10:14:37;99132.22;;;11.38;59.21
61484;BME280;47349;55.640;37.692;2022-09-02T10:21:00;99138.19;;;11.40;57.26
61484;BME280;47349;55.640;37.692;2022-09-02T10:23:58;99170.03;;;11.43;56.61
61484;BME280;47349;55.640;37.692;2022-09-02T10:26:56;99163.19;;;11.68;56.35
61484;BME280;47349;55.640;37.692;2022-09-02T10:29:49;99159.47;;;11.69;55.83
61484;BME280;47349;55.640;37.692;2022-09-02T10:36:51;99140.84;;;11.61;55.06
61484;BME280;47349;55.640;37.692;2022-09-02T10:43:05;99207.72;;;11.56;57.05
61484;BME280;47349;55.640;37.692;2022-09-02T10:46:23;99205.56;;;11.23;58.10
61484;BME280;47349;55.640;37.692;2022-09-02T10:56:16;99209.13;;;11.09;61.01
61484;BME280;47349;55.640;37.692;2022-09-02T10:59:11;99170.47;;;11.25;60.05
61484;BME280;47349;55.640;37.692;2022-09-02T11:02:46;99216.03;;;11.18;59.73
61484;BME280;47349;55.640;37.692;2022-09-02T11:05:44;99211.75;;;11.02;61.58
61484;BME280;47349;55.640;37.692;2022-09-02T11:14:24;99210.47;;;10.47;65.81
61484;BME280;47349;55.640;37.692;2022-09-02T11:20:17;99233.81;;;10.68;65.51
61484;BME280;47349;55.640;37.692;2022-09-02T11:26:48;99234.91;;;10.89;63.08
61484;BME280;47349;55.640;37.692;2022-09-02T11:35:25;99248.09;;;11.48;61.43
61484;BME280;47349;55.640;37.692;2022-09-02T11:38:35;99230.41;;;11.81;61.13
61484;BME280;47349;55.640;37.692;2022-09-02T11:53:17;99206.78;;;12.74;58.21
61484;BME280;47349;55.640;37.692;2022-09-02T11:56:12;99226.75;;;13.06;56.77
61484;BME280;47349;55.640;37.692;2022-09-02T11:58:58;99220.50;;;12.99;55.59
61484;BME280;47349;55.640;37.692;2022-09-02T12:01:47;99220.81;;;12.63;56.09
61484;BME280;47349;55.640;37.692;2022-09-02T12:04:27;99222.69;;;12.63;56.01
61484;BME280;47349;55.640;37.692;2022-09-02T12:07:24;99265.31;;;12.38;56.57
61484;BME280;47349;55.640;37.692;2022-09-02T12:13:33;99238.31;;;13.00;56.20
61484;BME280;47349;55.640;37.692;2022-09-02T12:16:40;99226.25;;;13.51;55.26
61484;BME280;47349;55.640;37.692;2022-09-02T12:19:27;99238.69;;;13.78;54.22
61484;BME280;47349;55.640;37.692;2022-09-02T12:25:01;99243.44;;;14.03;53.65
61484;BME280;47349;55.640;37.692;2022-09-02T12:27:46;99242.16;;;14.25;53.77
61484;BME280;47349;55.640;37.692;2022-09-02T12:33:38;99248.53;;;14.57;53.87
61484;BME280;47349;55.640;37.692;2022-09-02T12:47:25;99248.41;;;13.99;53.45
61484;BME280;47349;55.640;37.692;2022-09-02T12:50:31;99237.19;;;13.43;54.73
61484;BME280;47349;55.640;37.692;2022-09-02T12:53:26;99257.78;;;13.09;55.80
61484;BME280;47349;55.640;37.692;2022-09-02T12:58:55;99263.81;;;13.11;54.54
61484;BME280;47349;55.640;37.692;2022-09-02T13:07:54;99273.41;;;13.27;51.19
61484;BME280;47349;55.640;37.692;2022-09-02T13:20:38;99302.16;;;12.72;50.35
61484;BME280;47349;55.640;37.692;2022-09-02T13:26:51;99280.69;;;12.85;50.29
61484;BME280;47349;55.640;37.692;2022-09-02T13:32:58;99308.94;;;12.33;54.98
61484;BME280;47349;55.640;37.692;2022-09-02T13:35:43;99330.66;;;11.89;58.60
61484;BME280;47349;55.640;37.692;2022-09-02T13:38:41;99347.03;;;11.72;66.34
61484;BME280;47349;55.640;37.692;2022-09-02T13:41:56;99339.59;;;12.17;70.31
61484;BME280;47349;55.640;37.692;2022-09-02T13:44:45;99294.97;;;11.73;65.49
61484;BME280;47349;55.640;37.692;2022-09-02T13:47:52;99355.88;;;12.37;63.44
61484;BME280;47349;55.640;37.692;2022-09-02T13:50:40;99322.97;;;12.63;60.88
61484;BME280;47349;55.640;37.692;2022-09-02T13:53:32;99333.78;;;12.76;59.28
61484;BME280;47349;55.640;37.692;2022-09-02T13:56:14;99315.72;;;12.98;61.88
61484;BME280;47349;55.640;37.692;2022-09-02T13:58:57;99318.19;;;13.00;59.53
61484;BME280;47349;55.640;37.692;2022-09-02T14:01:39;99345.13;;;13.54;60.35
61484;BME280;47349;55.640;37.692;2022-09-02T14:04:21;99350.22;;;13.29;58.97
61484;BME280;47349;55.640;37.692;2022-09-02T14:07:06;99321.63;;;12.80;60.47
61484;BME280;47349;55.640;37.692;2022-09-02T14:09:48;99331.19;;;13.37;58.66
61484;BME280;47349;55.640;37.692;2022-09-02T14:12:18;99351.34;;;13.07;59.01
61484;BME280;47349;55.640;37.692;2022-09-02T14:14:48;99339.63;;;12.80;58.57
61484;BME280;47349;55.640;37.692;2022-09-02T14:17:29;99337.75;;;12.80;59.39
61484;BME280;47349;55.640;37.692;2022-09-02T14:20:21;99333.75;;;13.59;55.64
61484;BME280;47349;55.640;37.692;2022-09-02T14:22:54;99337.66;;;13.50;56.36
61484;BME280;47349;55.640;37.692;2022-09-02T14:25:37;99335.75;;;13.30;55.52
61484;BME280;47349;55.640;37.692;2022-09-02T14:28:33;99326.00;;;12.81;53.93
61484;BME280;47349;55.640;37.692;2022-09-02T14:31:26;99360.72;;;12.48;56.61
61484;BME280;47349;55.640;37.692;2022-09-02T14:34:30;99353.28;;;12.22;55.80
61484;BME280;47349;55.640;37.692;2022-09-02T14:37:31;99366.38;;;12.04;56.82
61484;BME280;47349;55.640;37.692;2022-09-02T14:40:09;99336.91;;;11.74;55.73
61484;BME280;47349;55.640;37.692;2022-09-02T14:42:52;99378.47;;;11.78;57.79
61484;BME280;47349;55.640;37.692;2022-09-02T14:45:34;99393.66;;;11.35;62.60
61484;BME280;47349;55.640;37.692;2022-09-02T14:51:09;99390.97;;;10.32;69.26
61484;BME280;47349;55.640;37.692;2022-09-02T14:54:12;99399.09;;;10.15;69.59
61484;BME280;47349;55.640;37.692;2022-09-02T14:58:00;99374.25;;;10.07;71.25
61484;BME280;47349;55.640;37.692;2022-09-02T15:01:03;99369.63;;;10.15;71.18
61484;BME280;47349;55.640;37.692;2022-09-02T15:04:13;99355.44;;;10.97;68.35
61484;BME280;47349;55.640;37.692;2022-09-02T15:07:13;99385.44;;;11.73;65.25
61484;BME280;47349;55.640;37.692;2022-09-02T15:10:02;99370.13;;;12.09;64.60
61484;BME280;47349;55.640;37.692;2022-09-02T15:13:10;99355.94;;;12.44;62.01
61484;BME280;47349;55.640;37.692;2022-09-02T15:16:16;99368.44;;;12.93;62.33
61484;BME280;47349;55.640;37.692;2022-09-02T15:19:17;99370.53;;;12.97;59.12
61484;BME280;47349;55.640;37.692;2022-09-02T15:22:01;99366.84;;;12.70;60.33
61484;BME280;47349;55.640;37.692;2022-09-02T15:24:43;99361.63;;;12.06;59.58
61484;BME280;47349;55.640;37.692;2022-09-02T15:27:28;99384.25;;;11.75;62.19
61484;BME280;47349;55.640;37.692;2022-09-02T15:30:10;99404.03;;;11.74;62.87
61484;BME280;47349;55.640;37.692;2022-09-02T15:32:51;99388.84;;;11.81;60.94
61484;BME280;47349;55.640;37.692;2022-09-02T15:35:38;99388.00;;;11.45;60.12
61484;BME280;47349;55.640;37.692;2022-09-02T15:38:21;99364.34;;;11.33;62.98
61484;BME280;47349;55.640;37.692;2022-09-02T15:41:31;99389.94;;;12.08;61.51
61484;BME280;47349;55.640;37.692;2022-09-02T15:44:16;99402.16;;;12.11;60.77
61484;BME280;47349;55.640;37.692;2022-09-02T15:47:37;99391.22;;;12.13;62.46
61484;BME280;47349;55.640;37.692;2022-09-02T15:50:20;99392.03;;;11.55;63.46
61484;BME280;47349;55.640;37.692;2022-09-02T15:53:02;99418.75;;;11.42;63.62
61484;BME280;47349;55.640;37.692;2022-09-02T15:55:43;99401.75;;;11.20;65.32
61484;BME280;47349;55.640;37.692;2022-09-02T15:58:24;99404.53;;;11.12;66.57
61484;BME280;47349;55.640;37.692;2022-09-02T16:01:07;99403.59;;;11.05;64.00
61484;BME280;47349;55.640;37.692;2022-09-02T16:03:49;99394.28;;;10.86;65.32
61484;BME280;47349;55.640;37.692;2022-09-02T16:06:31;99408.41;;;10.80;65.77
61484;BME280;47349;55.640;37.692;2022-09-02T16:09:17;99397.63;;;10.73;65.75
61484;BME280;47349;55.640;37.692;2022-09-02T16:12:00;99394.59;;;10.53;67.28
61484;BME280;47349;55.640;37.692;2022-09-02T16:14:30;99435.78;;;10.75;66.10
61484;BME280;47349;55.640;37.692;2022-09-02T16:17:43;99412.47;;;10.76;67.38
61484;BME280;47349;55.640;37.692;2022-09-02T16:21:51;99397.41;;;10.60;66.63
61484;BME280;47349;55.640;37.692;2022-09-02T16:26:47;99416.16;;;10.60;66.38
61484;BME280;47349;55.640;37.692;2022-09-02T17:49:33;99470.38;;;10.24;65.33
61484;BME280;47349;55.640;37.692;2022-09-02T17:52:42;99462.72;;;10.13;65.12
61484;BME280;47349;55.640;37.692;2022-09-02T17:56:17;99458.72;;;10.09;67.41
61484;BME280;47349;55.640;37.692;2022-09-02T17:59:26;99493.06;;;10.37;65.70
61484;BME280;47349;55.640;37.692;2022-09-02T18:05:24;99497.94;;;10.33;64.59
61484;BME280;47349;55.640;37.692;2022-09-02T18:11:18;99478.69;;;10.29;65.30
61484;BME280;47349;55.640;37.692;2022-09-02T18:14:38;99498.59;;;10.35;62.59
61484;BME280;47349;55.640;37.692;2022-09-02T18:18:09;99492.38;;;10.35;65.28
61484;BME280;47349;55.640;37.692;2022-09-02T18:21:32;99497.75;;;10.35;64.17
61484;BME280;47349;55.640;37.692;2022-09-02T18:24:49;99511.47;;;10.40;65.06
61484;BME280;47349;55.640;37.692;2022-09-02T18:30:54;99498.13;;;10.32;63.00
61484;BME280;47349;55.640;37.692;2022-09-02T18:40:41;99513.78;;;10.43;63.78
61484;BME280;47349;55.640;37.692;2022-09-02T18:43:58;99511.91;;;10.43;66.58
61484;BME280;47349;55.640;37.692;2022-09-02T18:47:22;99493.69;;;10.39;63.22
61484;BME280;47349;55.640;37.692;2022-09-02T18:51:11;99497.75;;;10.35;64.31
61484;BME280;47349;55.640;37.692;2022-09-02T18:57:47;99483.44;;;10.19;65.36
61484;BME280;47349;55.640;37.692;2022-09-02T19:01:46;99527.59;;;10.23;64.37
61484;BME280;47349;55.640;37.692;2022-09-02T19:05:04;99518.91;;;10.21;64.55
61484;BME280;47349;55.640;37.692;2022-09-02T19:08:44;99515.94;;;10.16;64.10
61484;BME280;47349;55.640;37.692;2022-09-02T19:12:33;99524.72;;;10.33;63.82
61484;BME280;47349;55.640;37.692;2022-09-02T19:16:00;99519.94;;;10.20;64.51
61484;BME280;47349;55.640;37.692;2022-09-02T19:19:05;99525.81;;;10.16;66.16
61484;BME280;47349;55.640;37.692;2022-09-02T19:22:23;99505.16;;;10.01;65.31
61484;BME280;47349;55.640;37.692;2022-09-02T19:25:30;99530.50;;;10.14;66.13
61484;BME280;47349;55.640;37.692;2022-09-02T19:28:56;99543.41;;;10.10;66.59
61484;BME280;47349;55.640;37.692;2022-09-02T19:32:26;99538.47;;;9.99;66.12
61484;BME280;47349;55.640;37.692;2022-09-02T19:35:45;99523.16;;;9.76;66.51
61484;BME280;47349;55.640;37.692;2022-09-02T19:39:53;99541.78;;;9.70;68.16
61484;BME280;47349;55.640;37.692;2022-09-02T19:43:49;99559.66;;;9.77;67.31
61484;BME280;47349;55.640;37.692;2022-09-02T19:47:11;99560.00;;;9.66;68.65
61484;BME280;47349;55.640;37.692;2022-09-02T19:51:15;99549.34;;;9.58;67.39
61484;BME280;47349;55.640;37.692;2022-09-02T19:54:41;99564.38;;;9.67;66.03
61484;BME280;47349;55.640;37.692;2022-09-02T19:57:34;99572.09;;;9.62;67.39
61484;BME280;47349;55.640;37.692;2022-09-02T20:00:47;99570.78;;;9.50;67.93